Doddridge, Arkansas
Current Conditions -  °F | °C
As of 5:53 PM on Friday 28 Nov 2014 (Local Time) from KTXK Reporting Station
Clear Clear  
Wind Chill: 56°   Ceiling: Unl
Heat Index: 56°   Visibility: 10mi
Dew Point: 43°   Wind: 8mph
Humidity: 62%   Direction: 160°SSE
Pressure: 30.09"   Gusts: NA
Location:  33.09°N, 93.91°W
Report Text: KTXK 282353Z 16007KT 10SM CLR 13/06 A3009 RMK AO2 SLP191 T01330061 10178 20128 56012
Loading
Personal Weather Stations






























Interactive Weather Map New forecast layout! Learn more

10-Day Weather Forecast

Advertisements
Track Severe Weather on mobile